createdAt,value
2017-11-15T00:01:02.968Z,82.10
2017-11-15T00:03:31.215Z,82.40
2017-11-15T00:05:59.467Z,82.80
2017-11-15T00:08:27.735Z,83.40
2017-11-15T00:10:55.989Z,81.20
2017-11-15T00:13:24.230Z,81.00
2017-11-15T00:15:52.503Z,80.90
2017-11-15T00:18:20.754Z,82.40
2017-11-15T00:20:49.007Z,82.80
2017-11-15T00:23:17.458Z,82.60
2017-11-15T00:25:45.699Z,82.10
2017-11-15T00:28:13.946Z,81.80
2017-11-15T00:30:42.214Z,82.50
2017-11-15T00:33:10.463Z,81.80
2017-11-15T00:35:38.711Z,81.70
2017-11-15T00:38:06.979Z,81.40
2017-11-15T00:40:35.455Z,82.10
2017-11-15T00:43:04.463Z,82.10
2017-11-15T00:45:33.181Z,82.00
2017-11-15T00:48:01.516Z,81.70
2017-11-15T00:50:30.530Z,82.80
2017-11-15T00:52:58.804Z,82.70
2017-11-15T00:55:27.047Z,82.40
2017-11-15T00:57:55.290Z,82.30
2017-11-15T01:00:23.559Z,82.20
2017-11-15T01:02:51.816Z,81.00
2017-11-15T01:05:20.067Z,81.50
2017-11-15T01:07:48.915Z,81.50
2017-11-15T01:10:17.154Z,81.70
2017-11-15T01:12:45.408Z,82.00
2017-11-15T01:15:13.675Z,82.10
2017-11-15T01:17:42.697Z,83.00
2017-11-15T01:20:10.943Z,82.90
2017-11-15T01:22:39.207Z,82.30
2017-11-15T01:25:07.455Z,83.00
2017-11-15T01:27:35.700Z,82.60
2017-11-15T01:30:04.326Z,82.30
2017-11-15T01:32:32.574Z,81.90
2017-11-15T01:35:00.823Z,82.30
2017-11-15T01:37:29.095Z,81.30
2017-11-15T01:39:58.107Z,81.60
2017-11-15T01:42:26.615Z,81.50
2017-11-15T01:44:54.884Z,82.20
2017-11-15T01:47:23.127Z,82.50
2017-11-15T01:49:51.370Z,82.50
2017-11-15T01:52:19.727Z,81.80
2017-11-15T01:54:47.971Z,82.80
2017-11-15T01:57:16.218Z,82.00
2017-11-15T01:59:44.488Z,82.90
2017-11-15T02:02:12.738Z,82.60
2017-11-15T02:04:40.987Z,82.70
2017-11-15T02:07:09.268Z,82.80
2017-11-15T02:09:37.513Z,84.50
2017-11-15T02:12:05.754Z,82.80
2017-11-15T02:14:34.518Z,81.90
2017-11-15T02:17:02.766Z,82.00
2017-11-15T02:19:31.015Z,83.40
2017-11-15T02:21:59.279Z,84.10
2017-11-15T02:24:27.526Z,84.30
2017-11-15T02:26:55.769Z,84.20
2017-11-15T02:29:24.805Z,84.30
2017-11-15T02:31:53.051Z,84.20
2017-11-15T02:34:21.293Z,85.00
2017-11-15T02:36:49.628Z,84.00
2017-11-15T02:39:17.871Z,83.60
2017-11-15T02:41:46.128Z,83.70
2017-11-15T02:44:14.449Z,85.70
2017-11-15T02:46:42.690Z,85.10
2017-11-15T02:49:10.935Z,87.00
2017-11-15T02:51:39.211Z,87.40
2017-11-15T02:54:07.468Z,86.90
2017-11-15T02:56:35.704Z,86.50
2017-11-15T02:59:04.887Z,88.20
2017-11-15T03:01:33.132Z,88.10
2017-11-15T03:04:01.375Z,88.40
2017-11-15T03:06:29.642Z,87.30
2017-11-15T03:08:57.903Z,87.60
2017-11-15T03:11:26.923Z,87.50
2017-11-15T03:13:55.187Z,87.50
2017-11-15T03:16:23.454Z,87.60
2017-11-15T03:18:51.687Z,87.80
2017-11-15T03:21:20.451Z,87.90
2017-11-15T03:23:48.696Z,86.50
2017-11-15T03:26:16.939Z,88.20
2017-11-15T03:28:45.211Z,86.30
2017-11-15T03:31:13.469Z,87.30
2017-11-15T03:33:41.720Z,87.90
2017-11-15T03:36:10.008Z,88.50
2017-11-15T03:38:38.240Z,87.10
2017-11-15T03:41:06.487Z,88.00
2017-11-15T03:43:34.955Z,89.30
2017-11-15T03:46:03.460Z,89.20
2017-11-15T03:48:31.708Z,90.00
2017-11-15T03:50:59.971Z,90.10
2017-11-15T03:53:28.223Z,90.00
2017-11-15T03:55:56.466Z,89.40
2017-11-15T03:58:24.740Z,88.80
2017-11-15T04:00:52.984Z,88.20
2017-11-15T04:03:21.228Z,88.90
2017-11-15T04:05:49.745Z,88.20
2017-11-15T04:08:18.009Z,88.10
2017-11-15T04:10:46.255Z,88.10
2017-11-15T04:13:14.527Z,89.10
2017-11-15T04:15:43.544Z,88.70
2017-11-15T04:18:11.795Z,88.70
2017-11-15T04:20:40.060Z,89.20
2017-11-15T04:23:08.305Z,89.90
2017-11-15T04:25:36.551Z,91.10
2017-11-15T04:28:05.319Z,91.80
2017-11-15T04:30:33.566Z,92.40
2017-11-15T04:33:01.815Z,92.00
2017-11-15T04:35:30.095Z,91.60
2017-11-15T04:37:58.340Z,92.60
2017-11-15T04:40:26.583Z,91.70
2017-11-15T04:42:54.847Z,91.30
2017-11-15T04:45:23.096Z,91.00
2017-11-15T04:47:51.529Z,90.50
2017-11-15T04:50:20.756Z,89.50
2017-11-15T04:52:49.008Z,89.40
2017-11-15T04:55:18.017Z,87.90
2017-11-15T04:57:46.290Z,87.80
2017-11-15T05:00:15.300Z,88.60
2017-11-15T05:02:43.547Z,88.50
2017-11-15T05:05:11.819Z,85.90
2017-11-15T05:07:40.075Z,86.30
2017-11-15T05:10:08.325Z,87.10
2017-11-15T05:12:37.559Z,87.50
2017-11-15T05:15:05.812Z,87.60
2017-11-15T05:17:34.051Z,87.50
2017-11-15T05:20:02.662Z,86.20
2017-11-15T05:22:30.911Z,87.00
2017-11-15T05:24:59.166Z,87.10
2017-11-15T05:27:27.444Z,87.10
2017-11-15T05:29:56.442Z,86.40
2017-11-15T05:32:25.470Z,86.40
2017-11-15T05:34:53.825Z,86.30
2017-11-15T05:37:22.834Z,86.30
2017-11-15T05:39:51.080Z,86.10
2017-11-15T05:42:19.348Z,86.70
2017-11-15T05:44:47.591Z,87.60
2017-11-15T05:47:15.840Z,88.40
2017-11-15T05:49:44.420Z,88.40
2017-11-15T05:52:12.667Z,87.50
2017-11-15T05:54:40.916Z,87.90
2017-11-15T05:57:09.575Z,87.10
2017-11-15T05:59:37.826Z,87.20
2017-11-15T06:02:06.071Z,87.40
2017-11-15T06:04:34.338Z,88.10
2017-11-15T06:07:02.579Z,88.50
2017-11-15T06:09:30.939Z,88.60
2017-11-15T06:11:59.167Z,89.10
2017-11-15T06:14:27.404Z,88.10
2017-11-15T06:16:55.723Z,87.60
2017-11-15T06:19:24.414Z,86.80
2017-11-15T06:21:52.626Z,87.00
2017-11-15T06:24:20.878Z,87.40
2017-11-15T06:26:49.273Z,87.00
2017-11-15T06:29:18.298Z,87.80
2017-11-15T06:31:46.518Z,87.70
2017-11-15T06:34:14.758Z,88.50
2017-11-15T06:36:43.747Z,88.40
2017-11-15T06:39:11.971Z,88.20
2017-11-15T06:41:41.275Z,86.80
2017-11-15T06:44:10.294Z,86.20
2017-11-15T06:46:38.544Z,86.00
2017-11-15T06:49:06.811Z,86.30
2017-11-15T06:51:35.412Z,86.50
2017-11-15T06:54:04.449Z,87.40
2017-11-15T06:56:32.720Z,87.40
2017-11-15T06:59:01.018Z,86.00
2017-11-15T07:01:29.251Z,86.60
2017-11-15T07:03:57.958Z,85.70
2017-11-15T07:06:26.211Z,85.10
2017-11-15T07:08:54.455Z,86.10
2017-11-15T07:11:22.726Z,86.30
2017-11-15T07:13:50.967Z,87.00
2017-11-15T07:16:19.211Z,87.70
2017-11-15T07:18:47.479Z,85.90
2017-11-15T07:21:15.792Z,85.90
2017-11-15T07:23:44.039Z,86.30
2017-11-15T07:26:13.379Z,85.90
2017-11-15T07:28:41.632Z,85.90
2017-11-15T07:31:09.876Z,86.30
2017-11-15T07:33:42.118Z,85.00
2017-11-15T07:36:10.362Z,86.00
2017-11-15T07:38:38.608Z,87.10
2017-11-15T07:41:07.642Z,87.50
2017-11-15T07:43:35.901Z,87.50
2017-11-15T07:46:04.334Z,89.40
2017-11-15T07:48:32.904Z,89.20
2017-11-15T07:51:01.144Z,88.20
2017-11-15T07:53:29.648Z,87.30
2017-11-15T07:55:57.899Z,87.30
2017-11-15T07:58:26.148Z,87.50
2017-11-15T08:00:54.431Z,87.80
2017-11-15T08:03:22.707Z,87.90
2017-11-15T08:05:51.723Z,87.50
2017-11-15T08:08:19.976Z,87.50
2017-11-15T08:10:48.584Z,87.00
2017-11-15T08:13:16.831Z,87.20
2017-11-15T08:15:45.841Z,86.50
2017-11-15T08:18:14.873Z,87.10
2017-11-15T08:20:43.140Z,87.10
2017-11-15T08:23:11.387Z,87.20
2017-11-15T08:25:40.424Z,86.50
2017-11-15T08:28:08.658Z,86.40
2017-11-15T08:30:36.908Z,87.50
2017-11-15T08:33:05.584Z,88.00
2017-11-15T08:35:33.832Z,88.50
2017-11-15T08:38:02.176Z,88.40
2017-11-15T08:40:30.443Z,87.00
2017-11-15T08:42:58.689Z,87.70
2017-11-15T08:45:26.935Z,84.30
2017-11-15T08:47:55.207Z,84.90
2017-11-15T08:50:23.475Z,82.50
2017-11-15T08:52:51.723Z,83.40
2017-11-15T08:55:20.181Z,82.30
2017-11-15T08:57:48.426Z,80.70
2017-11-15T09:00:16.680Z,82.50
2017-11-15T09:02:44.942Z,83.90
2017-11-15T09:05:13.187Z,81.70
2017-11-15T09:07:41.447Z,81.60
2017-11-15T09:10:09.787Z,81.00
2017-11-15T09:12:38.035Z,81.90
2017-11-15T09:15:07.052Z,81.90
2017-11-15T09:17:36.588Z,82.20
2017-11-15T09:20:04.843Z,82.20
2017-11-15T09:22:33.093Z,80.00
2017-11-15T09:25:01.368Z,77.60
2017-11-15T09:27:30.384Z,78.80
2017-11-15T09:29:58.631Z,78.70
2017-11-15T09:32:26.904Z,78.40
2017-11-15T09:34:55.151Z,79.60
2017-11-15T09:37:23.397Z,80.30
2017-11-15T09:39:52.124Z,80.30
2017-11-15T09:42:20.355Z,82.10
2017-11-15T09:44:48.607Z,82.30
2017-11-15T09:47:16.884Z,82.30
2017-11-15T09:49:45.913Z,80.90
2017-11-15T09:52:14.151Z,80.90
2017-11-15T09:54:43.196Z,80.90
2017-11-15T09:57:11.727Z,80.90
2017-11-15T09:59:40.075Z,81.70
2017-11-15T10:02:08.657Z,82.40
2017-11-15T10:04:36.934Z,79.90
2017-11-15T10:07:05.168Z,79.40
2017-11-15T10:09:33.443Z,78.40
2017-11-15T10:12:02.458Z,79.20
2017-11-15T10:14:30.698Z,79.00
2017-11-15T10:17:07.334Z,74.60
2017-11-15T10:19:35.575Z,77.70
2017-11-15T10:22:03.822Z,77.30
2017-11-15T10:24:32.676Z,79.20
2017-11-15T10:27:00.915Z,81.10
2017-11-15T10:29:29.168Z,80.90
2017-11-15T10:31:57.436Z,81.60
2017-11-15T10:34:26.444Z,81.60
2017-11-15T10:36:55.456Z,81.40
2017-11-15T10:39:23.731Z,81.30
2017-11-15T10:41:51.981Z,80.70
2017-11-15T10:44:20.991Z,79.10
2017-11-15T10:46:49.364Z,79.00
2017-11-15T10:49:17.608Z,80.30
2017-11-15T10:51:45.911Z,79.90
2017-11-15T10:54:14.173Z,80.20
2017-11-15T10:56:42.411Z,81.10
2017-11-15T10:59:10.679Z,81.70
2017-11-15T11:01:38.947Z,81.40
2017-11-15T11:04:07.191Z,79.80
2017-11-15T11:06:35.471Z,78.10
2017-11-15T11:09:03.915Z,78.20
2017-11-15T11:11:32.288Z,77.40
2017-11-15T11:14:00.528Z,77.50
2017-11-15T11:16:28.802Z,79.60
2017-11-15T11:18:57.048Z,80.60
2017-11-15T11:21:25.292Z,81.90
2017-11-15T11:23:53.572Z,77.80
2017-11-15T11:26:21.929Z,76.10
2017-11-15T11:28:50.162Z,79.00
2017-11-15T11:31:19.663Z,71.70
2017-11-15T11:33:47.969Z,71.50
2017-11-15T11:36:16.225Z,76.30
2017-11-15T11:38:45.256Z,76.30
2017-11-15T11:41:13.504Z,76.20
2017-11-15T11:43:41.756Z,74.10
2017-11-15T11:46:10.023Z,71.70
2017-11-15T11:48:38.269Z,69.60
2017-11-15T11:51:06.527Z,72.80
2017-11-15T11:53:34.852Z,72.90
2017-11-15T11:56:03.096Z,73.00
2017-11-15T11:58:31.335Z,74.00
2017-11-15T12:01:00.656Z,69.50
2017-11-15T12:03:28.909Z,69.40
2017-11-15T12:05:57.365Z,72.80
2017-11-15T12:08:25.757Z,69.20
2017-11-15T12:10:53.985Z,69.40
2017-11-15T12:13:22.227Z,68.10
2017-11-15T12:15:50.707Z,68.80
2017-11-15T12:18:18.956Z,70.50
2017-11-15T12:20:47.201Z,70.90
2017-11-15T12:23:15.475Z,70.70
2017-11-15T12:25:43.723Z,69.80
2017-11-15T12:28:11.972Z,73.30
2017-11-15T12:30:41.011Z,71.10
2017-11-15T12:33:09.243Z,70.80
2017-11-15T12:35:38.251Z,69.40
2017-11-15T12:38:07.591Z,68.90
2017-11-15T12:40:35.844Z,68.90
2017-11-15T12:43:04.097Z,69.70
2017-11-15T12:45:32.370Z,69.80
2017-11-15T12:48:01.388Z,71.20
2017-11-15T12:50:30.396Z,69.20
2017-11-15T12:52:58.663Z,69.20
2017-11-15T12:55:26.915Z,70.90
2017-11-15T12:57:55.919Z,68.40
2017-11-15T13:00:25.463Z,70.40
2017-11-15T13:02:53.928Z,70.30
2017-11-15T13:05:22.344Z,70.00
2017-11-15T13:07:50.598Z,72.00
2017-11-15T13:10:18.859Z,70.60
2017-11-15T13:12:47.169Z,68.30
2017-11-15T13:15:15.512Z,70.30
2017-11-15T13:17:43.807Z,69.50
2017-11-15T13:20:12.043Z,67.80
2017-11-15T13:22:40.627Z,68.70
2017-11-15T13:25:08.872Z,68.20
2017-11-15T13:27:37.121Z,68.80
2017-11-15T13:30:05.383Z,69.70
2017-11-15T13:32:33.636Z,68.80
2017-11-15T13:35:01.885Z,67.80
2017-11-15T13:37:30.155Z,68.40
2017-11-15T13:39:58.399Z,66.50
2017-11-15T13:42:26.664Z,68.30
2017-11-15T13:44:55.367Z,68.50
2017-11-15T13:47:23.619Z,70.50
2017-11-15T13:49:51.871Z,69.20
2017-11-15T13:52:20.913Z,70.90
2017-11-15T13:54:49.156Z,70.90
2017-11-15T13:57:18.168Z,71.40
2017-11-15T13:59:46.443Z,71.20
2017-11-15T14:02:14.687Z,69.50
2017-11-15T14:04:43.891Z,70.40
2017-11-15T14:07:13.252Z,72.20
2017-11-15T14:09:41.494Z,72.20
2017-11-15T14:12:09.743Z,72.40
2017-11-15T14:14:38.020Z,70.90
2017-11-15T14:17:07.035Z,72.30
2017-11-15T14:19:35.284Z,72.20
2017-11-15T14:22:03.551Z,72.80
2017-11-15T14:24:31.806Z,70.90
2017-11-15T14:27:00.061Z,72.00
2017-11-15T14:29:28.635Z,72.90
2017-11-15T14:31:56.882Z,73.70
2017-11-15T14:34:25.119Z,72.60
2017-11-15T14:36:53.383Z,72.40
2017-11-15T14:39:21.629Z,72.60
2017-11-15T14:41:49.883Z,74.40
2017-11-15T14:44:18.910Z,74.60
2017-11-15T14:46:47.160Z,74.50
2017-11-15T14:49:15.403Z,73.90
2017-11-15T14:51:43.877Z,73.40
2017-11-15T14:54:12.114Z,73.60
2017-11-15T14:56:40.369Z,74.90
2017-11-15T14:59:08.639Z,75.60
2017-11-15T15:01:36.883Z,75.40
2017-11-15T15:04:05.127Z,75.80
2017-11-15T15:06:34.272Z,74.90
2017-11-15T15:09:02.519Z,74.80
2017-11-15T15:11:30.772Z,74.60
2017-11-15T15:13:59.086Z,75.60
2017-11-15T15:16:27.331Z,75.60
2017-11-15T15:18:55.577Z,76.40
2017-11-15T15:21:24.617Z,76.20
2017-11-15T15:23:52.855Z,76.10
2017-11-15T15:26:21.100Z,75.60
2017-11-15T15:28:49.373Z,76.60
2017-11-15T15:31:17.624Z,77.30
2017-11-15T15:33:45.887Z,77.10
2017-11-15T15:36:14.593Z,77.60
2017-11-15T15:38:42.836Z,78.10
2017-11-15T15:41:11.120Z,77.30
2017-11-15T15:43:39.376Z,77.30
2017-11-15T15:46:07.619Z,77.60
2017-11-15T15:48:35.874Z,77.30
2017-11-15T15:51:04.139Z,77.50
2017-11-15T15:53:32.389Z,77.60
2017-11-15T15:56:00.626Z,77.60
2017-11-15T15:58:29.088Z,77.90
2017-11-15T16:00:57.335Z,78.20
2017-11-15T16:03:25.577Z,78.00
2017-11-15T16:05:53.848Z,78.10
2017-11-15T16:08:22.519Z,78.70
2017-11-15T16:10:50.782Z,79.60
2017-11-15T16:13:19.035Z,79.40
2017-11-15T16:15:47.347Z,79.10
2017-11-15T16:18:15.613Z,79.50
2017-11-15T16:20:44.175Z,79.80
2017-11-15T16:23:12.420Z,79.90
2017-11-15T16:25:40.673Z,80.00
2017-11-15T16:28:08.944Z,79.80
2017-11-15T16:30:37.201Z,80.10
2017-11-15T16:33:06.219Z,80.20
2017-11-15T16:35:34.486Z,80.20
2017-11-15T16:38:02.735Z,80.10
2017-11-15T16:40:30.983Z,80.40
2017-11-15T16:42:59.642Z,80.70
2017-11-15T16:45:27.886Z,81.70
2017-11-15T16:47:56.136Z,81.20
2017-11-15T16:50:25.612Z,81.20
2017-11-15T16:52:53.860Z,81.30
2017-11-15T16:55:22.112Z,80.20
2017-11-15T16:57:50.379Z,80.50
2017-11-15T17:00:18.627Z,79.90
2017-11-15T17:02:46.888Z,80.00
2017-11-15T17:05:15.984Z,80.80
2017-11-15T17:07:44.999Z,80.50
2017-11-15T17:10:13.487Z,80.50
2017-11-15T17:12:41.759Z,81.00
2017-11-15T17:15:10.009Z,80.70
2017-11-15T17:17:39.027Z,81.20
2017-11-15T17:20:07.302Z,81.10
2017-11-15T17:22:35.543Z,81.40
2017-11-15T17:25:03.795Z,80.50
2017-11-15T17:27:32.578Z,80.80
2017-11-15T17:30:00.824Z,80.90
2017-11-15T17:32:29.072Z,80.20
2017-11-15T17:34:58.111Z,80.90
2017-11-15T17:37:26.367Z,80.80
2017-11-15T17:39:54.607Z,81.80
2017-11-15T17:42:22.907Z,81.80
2017-11-15T17:44:51.179Z,81.90
2017-11-15T17:47:20.186Z,83.10
2017-11-15T17:49:48.727Z,82.90
2017-11-15T17:52:16.976Z,82.60
2017-11-15T17:54:45.231Z,82.90
2017-11-15T17:57:13.491Z,83.20
2017-11-15T17:59:41.826Z,83.20
2017-11-15T18:02:10.063Z,82.70
2017-11-15T18:04:38.327Z,82.90
2017-11-15T18:07:06.660Z,83.40
2017-11-15T18:09:34.927Z,83.40
2017-11-15T18:12:03.431Z,82.50
2017-11-15T18:14:31.680Z,82.80
2017-11-15T18:16:59.936Z,83.30
2017-11-15T18:19:28.199Z,83.10
2017-11-15T18:21:56.527Z,83.70
2017-11-15T18:24:24.798Z,83.30
2017-11-15T18:26:53.059Z,83.40
2017-11-15T18:29:21.315Z,84.00
2017-11-15T18:31:49.572Z,83.70
2017-11-15T18:34:18.515Z,84.10
2017-11-15T18:36:46.762Z,84.20
2017-11-15T18:39:15.011Z,83.90
2017-11-15T18:41:43.290Z,84.70
2017-11-15T18:44:12.312Z,84.60
2017-11-15T18:46:40.550Z,84.60
2017-11-15T18:49:08.831Z,83.90
2017-11-15T18:51:37.080Z,84.40
2017-11-15T18:54:05.332Z,84.50
2017-11-15T18:56:33.662Z,84.50
2017-11-15T18:59:01.908Z,84.40
2017-11-15T19:01:30.159Z,85.20
2017-11-15T19:03:58.560Z,84.90
2017-11-15T19:06:27.654Z,84.90
2017-11-15T19:08:55.975Z,84.70
2017-11-15T19:11:24.471Z,85.30
2017-11-15T19:13:53.767Z,85.10
2017-11-15T19:16:22.909Z,84.40
2017-11-15T19:18:51.258Z,84.20
2017-11-15T19:21:20.712Z,84.30
2017-11-15T19:23:49.086Z,84.70
2017-11-15T19:26:17.497Z,84.00
2017-11-15T19:28:46.520Z,84.70
2017-11-15T19:31:14.838Z,84.70
2017-11-15T19:33:43.115Z,84.30
2017-11-15T19:36:11.879Z,84.60
2017-11-15T19:38:40.279Z,84.80
2017-11-15T19:41:09.039Z,85.60
2017-11-15T19:43:37.306Z,85.10
2017-11-15T19:46:05.551Z,85.70
2017-11-15T19:48:33.838Z,85.80
2017-11-15T19:51:02.842Z,86.70
2017-11-15T19:53:31.100Z,86.70
2017-11-15T19:55:59.374Z,85.30
2017-11-15T19:58:27.611Z,85.80
2017-11-15T20:00:55.854Z,85.70
2017-11-15T20:03:24.179Z,85.00
2017-11-15T20:05:52.440Z,85.90
2017-11-15T20:08:20.838Z,85.40
2017-11-15T20:10:49.127Z,86.40
2017-11-15T20:13:17.907Z,85.90
2017-11-15T20:15:46.175Z,86.50
2017-11-15T20:18:14.478Z,86.20
2017-11-15T20:20:42.727Z,85.90
2017-11-15T20:23:10.990Z,86.40
2017-11-15T20:25:39.384Z,86.70
2017-11-15T20:28:07.872Z,87.40
2017-11-15T20:30:36.119Z,87.70
2017-11-15T20:33:04.409Z,88.20
2017-11-15T20:35:32.712Z,88.10
2017-11-15T20:38:01.082Z,88.80
2017-11-15T20:40:29.496Z,88.90
2017-11-15T20:42:58.508Z,88.50
2017-11-15T20:45:26.755Z,88.50
2017-11-15T20:47:55.366Z,88.20
2017-11-15T20:50:23.779Z,88.30
2017-11-15T20:52:52.041Z,88.20
2017-11-15T20:55:20.325Z,88.20
2017-11-15T20:57:48.568Z,87.90
2017-11-15T21:00:16.816Z,87.90
2017-11-15T21:02:45.861Z,88.00
2017-11-15T21:05:14.116Z,87.90
2017-11-15T21:07:42.363Z,87.80
2017-11-15T21:10:10.710Z,87.80
2017-11-15T21:12:39.794Z,87.60
2017-11-15T21:15:08.322Z,88.10
2017-11-15T21:17:37.378Z,89.30
2017-11-15T21:20:05.659Z,89.20
2017-11-15T21:22:33.937Z,88.70
2017-11-15T21:25:02.191Z,88.90
2017-11-15T21:27:30.435Z,89.00
2017-11-15T21:29:58.684Z,87.50
2017-11-15T21:32:27.336Z,87.70
2017-11-15T21:34:55.599Z,88.10
2017-11-15T21:37:23.840Z,87.70
2017-11-15T21:39:52.883Z,88.50
2017-11-15T21:42:21.136Z,88.40
2017-11-15T21:44:49.391Z,88.70
2017-11-15T21:47:17.658Z,88.80
2017-11-15T21:49:45.907Z,88.70
2017-11-15T21:52:14.154Z,88.70
2017-11-15T21:54:42.515Z,89.00
2017-11-15T21:57:10.792Z,89.00
2017-11-15T21:59:39.795Z,89.50
2017-11-15T22:02:08.072Z,89.40
2017-11-15T22:04:36.315Z,89.80
2017-11-15T22:07:04.567Z,89.50
2017-11-15T22:09:32.847Z,89.60
2017-11-15T22:12:01.092Z,89.90
2017-11-15T22:14:29.340Z,89.50
2017-11-15T22:16:58.164Z,90.10
2017-11-15T22:19:26.431Z,89.60
2017-11-15T22:21:54.668Z,90.00
2017-11-15T22:24:22.945Z,90.40
2017-11-15T22:26:52.003Z,90.20
2017-11-15T22:29:20.247Z,90.10
2017-11-15T22:31:48.529Z,90.30
2017-11-15T22:34:17.991Z,90.60
2017-11-15T22:36:47.003Z,90.30
2017-11-15T22:39:15.626Z,90.30
2017-11-15T22:41:43.887Z,90.60
2017-11-15T22:44:12.131Z,90.60
2017-11-15T22:46:41.195Z,90.90
2017-11-15T22:49:09.476Z,90.80
2017-11-15T22:51:40.002Z,90.70
2017-11-15T22:54:08.275Z,90.50
2017-11-15T22:56:36.524Z,90.60
2017-11-15T22:59:04.768Z,90.50
2017-11-15T23:01:33.287Z,90.90
2017-11-15T23:04:01.539Z,90.80
2017-11-15T23:06:29.779Z,90.90
2017-11-15T23:08:58.051Z,90.90
2017-11-15T23:11:26.383Z,90.90
2017-11-15T23:13:54.629Z,90.70
2017-11-15T23:16:22.894Z,91.00
2017-11-15T23:18:52.047Z,91.30
2017-11-15T23:21:20.296Z,91.30
2017-11-15T23:23:50.017Z,91.00
2017-11-15T23:26:18.264Z,90.70
2017-11-15T23:28:47.287Z,91.00
2017-11-15T23:31:15.635Z,91.00
2017-11-15T23:33:44.659Z,90.90
2017-11-15T23:36:12.907Z,90.90
2017-11-15T23:38:41.382Z,90.90
2017-11-15T23:41:10.396Z,90.90
2017-11-15T23:43:38.642Z,90.90
2017-11-15T23:46:06.971Z,90.70
2017-11-15T23:48:36.416Z,90.50
2017-11-15T23:51:04.660Z,91.00
2017-11-15T23:53:32.923Z,90.10
2017-11-15T23:56:01.173Z,89.90
2017-11-15T23:58:29.424Z,90.40
